Nautilus Balder — LDYZ — position and weather

sailwx.info

Track history (hours):
 
Tides and Currents Weather Stations Pressure Air Temp Water Temp Dewpoint Dewpoint Depression Visibility Wind Speed Wind Dir Waves Ship Positions

Nautilus Balder

Last reported at 2018-Jun-17 08:21 UTC. Time now 2018-Jun-21 04:13 UTC.
Position N 59°53' E 005°32'.

Length 35 m; draft 5.6 m.

Type: Towing. MMSI: 258283000.

Date/timePositionNaut miles runAvg speedWind from/ knotsBaromVisibWave heightAir tempDewpointWater temp
2018-Jun-17 08:21N 59°53' E 005°32'3 7.7
2018-Jun-17 07:59N 59°50' E 005°33'4 7.3
2018-Jun-17 07:28N 59°47' E 005°33'3 6.6
2018-Jun-17 07:00N 59°44' E 005°29'3 6.6
2018-Jun-17 06:30N 59°42' E 005°25'3 6.5
2018-Jun-17 06:00N 59°39' E 005°20'3 7.0
2018-Jun-17 05:30N 59°37' E 005°17'4 6.9
2018-Jun-17 04:59N 59°33' E 005°13'4 6.8
2018-Jun-17 04:28N 59°30' E 005°13'12 7.0
2018-Jun-17 02:40N 59°18' E 005°20'1 7.4
2018-Jun-17 02:30N 59°17' E 005°20'4 7.3
2018-Jun-17 02:00N 59°13' E 005°21'4 7.4
2018-Jun-17 01:30N 59°09' E 005°21'4 7.3
2018-Jun-17 01:00N 59°06' E 005°21'3 6.8
2018-Jun-17 00:30N 59°02' E 005°20'3 6.7
2018-Jun-17 00:00N 58°59' E 005°21'3 6.6
2018-Jun-16 23:30N 58°56' E 005°22'3 6.6
2018-Jun-16 23:00N 58°53' E 005°23'3 6.5
2018-Jun-16 22:30N 58°49' E 005°24'3 6.5
2018-Jun-16 22:00N 58°46' E 005°25'3 6.8
2018-Jun-16 21:30N 58°43' E 005°28'3 6.7
2018-Jun-16 21:00N 58°40' E 005°31'3 6.9
2018-Jun-16 20:30N 58°37' E 005°34'4 7.3
2018-Jun-16 20:00N 58°34' E 005°37'4 7.4
2018-Jun-16 19:30N 58°31' E 005°41'4 7.6
2018-Jun-16 18:56N 58°27' E 005°47'3 7.5
2018-Jun-16 18:29N 58°25' E 005°51'4 7.4
2018-Jun-16 18:00N 58°23' E 005°56'4 7.4
2018-Jun-16 17:30N 58°20' E 006°01'29 6.9
2018-Jun-16 13:19N 58°02' E 006°44'2 6.9
2018-Jun-16 13:00N 58°01' E 006°48'3 6.8
2018-Jun-16 12:30N 57°60' E 006°54'3 6.8
2018-Jun-16 12:00N 57°59' E 006°60'3 6.8
2018-Jun-16 11:30N 57°58' E 007°06'3 6.7
2018-Jun-16 10:59N 57°57' E 007°12'  
2018-Jun-13 17:06N 58°05' E 008°04'1 7.6
2018-Jun-13 17:00N 58°05' E 008°05'12 7.4
2018-Jun-13 15:21N 58°10' E 008°26'3 8.2
2018-Jun-13 15:00N 58°12' E 008°30'4 8.2
2018-Jun-13 14:30N 58°15' E 008°36'4 8.1
2018-Jun-13 14:00N 58°17' E 008°42'4 8.1
2018-Jun-13 13:29N 58°20' E 008°48'51 8.1
2018-Jun-13 07:11N 58°52' E 010°04'2 7.9
2018-Jun-13 06:58N 58°53' E 010°06'4 7.7
2018-Jun-13 06:30N 58°55' E 010°12'4 7.4
2018-Jun-13 06:00N 58°57' E 010°18'4 7.2
2018-Jun-13 05:30N 58°60' E 010°23'3 6.9
2018-Jun-13 05:00N 59°02' E 010°28'3 6.8
2018-Jun-13 04:30N 59°05' E 010°31'4 7.2
2018-Jun-13 04:00N 59°08' E 010°35'4 7.1
2018-Jun-13 03:30N 59°11' E 010°37'4 7.7
2018-Jun-13 03:00N 59°15' E 010°36'4 7.8
2018-Jun-13 02:30N 59°19' E 010°35'4 7.8
2018-Jun-13 02:00N 59°23' E 010°34'4 7.7
2018-Jun-13 01:30N 59°27' E 010°31'4 7.4
2018-Jun-13 01:00N 59°30' E 010°27'4 7.0
2018-Jun-13 00:30N 59°33' E 010°24'3 7.0
2018-Jun-13 00:00N 59°36' E 010°25'3 6.8
2018-Jun-12 23:30N 59°40' E 010°24'2 0.1
2018-Jun-11 10:11N 59°41' E 010°22'3 7.6
2018-Jun-11 09:45N 59°38' E 010°25'2 7.0
2018-Jun-11 09:30N 59°37' E 010°25'3 5.8
2018-Jun-11 09:00N 59°34' E 010°25'3 6.7
2018-Jun-11 08:30N 59°31' E 010°26'4 7.4
2018-Jun-11 08:00N 59°28' E 010°30'4 7.9
2018-Jun-11 07:30N 59°24' E 010°34'4 8.0
2018-Jun-11 07:00N 59°20' E 010°36'4 8.2
2018-Jun-11 06:30N 59°16' E 010°37'4 7.8
2018-Jun-11 06:00N 59°12' E 010°39'4 7.5
2018-Jun-11 05:30N 59°09' E 010°41'4 7.4
2018-Jun-11 05:00N 59°06' E 010°45'4 7.2
2018-Jun-11 04:30N 59°03' E 010°49'4 7.0
2018-Jun-11 04:00N 59°01' E 010°55'4 7.2
2018-Jun-11 03:30N 58°59' E 011°01'3 5.3
2018-Jun-11 03:00N 59°00' E 011°06'3 6.4
2018-Jun-11 02:30N 59°03' E 011°09'3 6.4
2018-Jun-11 02:00N 59°05' E 011°13'3 5.1
2018-Jun-11 01:30N 59°06' E 011°18'1 1.8
2018-Jun-11 00:44N 59°07' E 011°20'0 0.0
2018-Jun-11 00:29N 59°07' E 011°20'0 0.0
2018-Jun-10 23:50N 59°07' E 011°20'0 0.0
2018-Jun-10 23:29N 59°07' E 011°20'0 0.0
2018-Jun-10 22:59N 59°07' E 011°20'0 0.0
2018-Jun-10 22:29N 59°07' E 011°20'0 0.0
2018-Jun-10 21:59N 59°07' E 011°20'0 0.0
2018-Jun-10 21:29N 59°07' E 011°20'0 0.0
2018-Jun-10 20:59N 59°07' E 011°20'0 0.0
2018-Jun-10 20:29N 59°07' E 011°20'0 0.0
2018-Jun-10 19:59N 59°07' E 011°20'0 0.0
2018-Jun-10 19:29N 59°07' E 011°20'0 0.0
2018-Jun-10 18:56N 59°07' E 011°20'0 0.0
2018-Jun-10 18:23N 59°07' E 011°20'0 0.0
2018-Jun-10 17:59N 59°07' E 011°20'0 0.0
2018-Jun-10 17:23N 59°07' E 011°20'0 0.0
2018-Jun-10 16:59N 59°07' E 011°20'0 0.0
2018-Jun-10 16:29N 59°07' E 011°20'0 0.0
2018-Jun-10 15:59N 59°07' E 011°20'0 0.0
2018-Jun-10 15:26N 59°07' E 011°20'0 0.0
2018-Jun-10 14:56N 59°07' E 011°20'0 0.0
2018-Jun-10 13:59N 59°07' E 011°20'0 0.0
2018-Jun-10 13:29N 59°07' E 011°20'0 0.0
2018-Jun-10 12:59N 59°07' E 011°20'0 0.0
2018-Jun-10 12:20N 59°07' E 011°20'0 0.0
2018-Jun-10 11:59N 59°07' E 011°20'0 0.0
2018-Jun-10 11:23N 59°07' E 011°20'0 0.0
2018-Jun-10 10:50N 59°07' E 011°20'0 0.0
2018-Jun-10 10:26N 59°07' E 011°20'0 0.0
2018-Jun-10 09:59N 59°07' E 011°20'0 0.0
2018-Jun-10 09:26N 59°07' E 011°20'0 0.0
2018-Jun-10 08:59N 59°07' E 011°20'0 0.0
2018-Jun-10 08:14N 59°07' E 011°20'0 0.0
2018-Jun-10 07:56N 59°07' E 011°20'0 0.0
2018-Jun-10 07:23N 59°07' E 011°20'0 0.0
2018-Jun-10 06:59N 59°07' E 011°20'0 0.0
2018-Jun-10 06:26N 59°07' E 011°20'0 0.0
2018-Jun-10 05:59N 59°07' E 011°20'0 0.0
2018-Jun-10 05:26N 59°07' E 011°20'0 0.0
2018-Jun-10 04:53N 59°07' E 011°20'0 0.0
2018-Jun-10 04:29N 59°07' E 011°20'0 0.0
2018-Jun-10 03:59N 59°07' E 011°20'0 0.0
2018-Jun-10 03:26N 59°07' E 011°20'0 0.0
2018-Jun-10 02:59N 59°07' E 011°20'0 0.0
2018-Jun-10 02:29N 59°07' E 011°20'0 0.0
2018-Jun-10 01:59N 59°07' E 011°20'0 0.0
2018-Jun-10 01:23N 59°07' E 011°20'0 0.0
2018-Jun-10 00:53N 59°07' E 011°20'0 0.0
2018-Jun-10 00:26N 59°07' E 011°20'0 0.0
2018-Jun-09 23:59N 59°07' E 011°20'0 0.0
2018-Jun-09 23:26N 59°07' E 011°20'0 0.0
2018-Jun-09 22:59N 59°07' E 011°20'0 0.0
2018-Jun-09 22:29N 59°07' E 011°20'0 0.0
2018-Jun-09 21:59N 59°07' E 011°20'0 0.0
2018-Jun-09 21:29N 59°07' E 011°20'0 0.0
2018-Jun-09 20:59N 59°07' E 011°20'0 0.0
2018-Jun-09 20:29N 59°07' E 011°20'0 0.0
2018-Jun-09 19:53N 59°07' E 011°20'0 0.0
2018-Jun-09 19:29N 59°07' E 011°20'0 0.0
2018-Jun-09 18:56N 59°07' E 011°20'0 0.0
2018-Jun-09 18:20N 59°07' E 011°20'0 0.0
2018-Jun-09 17:56N 59°07' E 011°20'0 0.0
2018-Jun-09 17:26N 59°07' E 011°20'0 0.0
2018-Jun-09 16:50N 59°07' E 011°20'0 0.0
2018-Jun-09 16:28N 59°07' E 011°20'0 0.0
2018-Jun-09 15:43N 59°07' E 011°20'0 0.0
2018-Jun-09 15:22N 59°07' E 011°20'0 0.0
2018-Jun-09 14:28N 59°07' E 011°20'0 0.0
2018-Jun-09 13:55N 59°07' E 011°20'0 0.0
2018-Jun-09 13:19N 59°07' E 011°20'0 0.0
2018-Jun-09 12:58N 59°07' E 011°20'0 0.0
2018-Jun-09 12:25N 59°07' E 011°20'0 0.0
2018-Jun-09 11:58N 59°07' E 011°20'0 0.0
2018-Jun-09 11:10N 59°07' E 011°20'0 0.0
2018-Jun-09 10:49N 59°07' E 011°20'0 0.0
2018-Jun-09 10:25N 59°07' E 011°20'0 0.0
2018-Jun-09 09:58N 59°07' E 011°20'0 0.0
2018-Jun-09 09:28N 59°07' E 011°20'0 0.0
2018-Jun-09 08:58N 59°07' E 011°20'0 0.0
2018-Jun-09 08:28N 59°07' E 011°20'0 0.0
2018-Jun-09 07:58N 59°07' E 011°20'0 0.2
2018-Jun-09 07:04N 59°07' E 011°20'1 0.5
2018-Jun-09 04:19N 59°07' E 011°23'0 0.0
2018-Jun-09 03:28N 59°07' E 011°23'0 0.0
2018-Jun-09 02:58N 59°07' E 011°23'0 0.0
2018-Jun-09 02:04N 59°07' E 011°23'0 0.0
2018-Jun-09 01:52N 59°07' E 011°23'0 0.0
2018-Jun-09 01:13N 59°07' E 011°23'0 0.0
2018-Jun-08 22:31N 59°07' E 011°23'0 0.1
2018-Jun-08 22:28N 59°07' E 011°23'0 0.0
2018-Jun-08 21:58N 59°07' E 011°23'1 0.2
2018-Jun-08 17:10N 59°07' E 011°21'2 6.5
2018-Jun-08 16:54N 59°06' E 011°18'3 6.3
2018-Jun-08 16:30N 59°05' E 011°13'4 7.4
2018-Jun-08 16:00N 59°03' E 011°08'4 7.9
2018-Jun-08 15:30N 58°59' E 011°05'4 8.0
2018-Jun-08 15:00N 58°56' E 010°60'4 8.1
2018-Jun-08 14:30N 58°54' E 010°53'4 8.0
2018-Jun-08 14:00N 58°51' E 010°47'4 8.0
2018-Jun-08 13:30N 58°48' E 010°42'4 8.0
2018-Jun-08 13:00N 58°46' E 010°36'4 8.0
2018-Jun-08 12:30N 58°43' E 010°30'4 7.8
2018-Jun-08 12:00N 58°41' E 010°24'4 7.7
2018-Jun-08 11:30N 58°38' E 010°18'4 7.7
2018-Jun-08 11:00N 58°36' E 010°13'4 7.7
2018-Jun-08 10:30N 58°33' E 010°07'4 7.7
2018-Jun-08 10:00N 58°31' E 010°02'5 7.5
2018-Jun-08 09:24N 58°28' E 009°55'3 7.7
2018-Jun-08 09:00N 58°26' E 009°51'4 7.7
2018-Jun-08 08:30N 58°23' E 009°45'12 7.6
2018-Jun-08 06:56N 58°15' E 009°28'11 6.7
2018-Jun-08 05:22N 58°09' E 009°13'3 6.7
2018-Jun-08 04:55N 58°07' E 009°09'3 6.8
2018-Jun-08 04:30N 58°05' E 009°05'4 7.2
2018-Jun-08 04:00N 58°02' E 008°60'4 7.2
2018-Jun-08 03:30N 58°00' E 008°54'4 7.0
2018-Jun-08 03:00N 57°58' E 008°49'3 6.8
2018-Jun-08 02:30N 57°56' E 008°43'4 7.0
2018-Jun-08 01:58N 57°56' E 008°36'3 7.5
2018-Jun-08 01:30N 57°55' E 008°30'4 7.7
2018-Jun-08 01:00N 57°55' E 008°23'4 7.8
2018-Jun-08 00:30N 57°54' E 008°15'16 7.8
2018-Jun-07 22:25N 57°52' E 007°45'16 7.2
2018-Jun-07 20:09N 57°52' E 007°14'3 7.1
2018-Jun-07 19:45N 57°52' E 007°09'2 7.4
2018-Jun-07 19:28N 57°52' E 007°05'3 7.3
2018-Jun-07 19:00N 57°53' E 006°59'4 7.4
2018-Jun-07 18:30N 57°55' E 006°53'4 7.3
2018-Jun-07 18:00N 57°57' E 006°47'4 7.2
2018-Jun-07 17:30N 57°58' E 006°40'5 7.0
2018-Jun-07 16:49N 58°00' E 006°32'2 6.6
2018-Jun-07 16:30N 58°01' E 006°29'3 6.4
2018-Jun-07 15:59N 58°04' E 006°24'3 6.5
2018-Jun-07 15:29N 58°06' E 006°20'3 6.6
2018-Jun-07 15:00N 58°08' E 006°15'4 6.9
2018-Jun-07 14:29N 58°10' E 006°10'5 7.2
2018-Jun-07 13:46N 58°14' E 006°03'2 7.8
2018-Jun-07 13:27N 58°15' E 005°59'4 7.5
2018-Jun-07 12:59N 58°18' E 005°55'3 7.4
2018-Jun-07 12:31N 58°21' E 005°51'4 7.4
2018-Jun-07 12:00N 58°23' E 005°46'3 6.2
2018-Jun-07 11:30N 58°26' E 005°42'3 6.4
2018-Jun-07 11:01N 58°28' E 005°38'3 6.3
2018-Jun-07 10:30N 58°30' E 005°34'3 6.1
2018-Jun-07 10:00N 58°33' E 005°31'4 7.4
2018-Jun-07 09:30N 58°37' E 005°28'4 7.6
2018-Jun-07 09:00N 58°40' E 005°26'4 7.5
2018-Jun-07 08:30N 58°44' E 005°23'  
Track history (hours):
 
Tides and Currents Weather Stations Pressure Air Temp Water Temp Dewpoint Dewpoint Depression Visibility Wind Speed Wind Dir Waves Ship Positions

Nautilus Balder

Last reported at 2018-Jun-17 08:21 UTC. Time now 2018-Jun-21 04:13 UTC.
Position N 59°53' E 005°32'.

Length 35 m; draft 5.6 m.

Type: Towing. MMSI: 258283000.

Date/timePositionNaut miles runAvg speedWind from/ knotsBaromVisibWave heightAir tempDewpointWater temp
2018-Jun-17 08:21N 59°53' E 005°32'3 7.7
2018-Jun-17 07:59N 59°50' E 005°33'4 7.3
2018-Jun-17 07:28N 59°47' E 005°33'3 6.6
2018-Jun-17 07:00N 59°44' E 005°29'3 6.6
2018-Jun-17 06:30N 59°42' E 005°25'3 6.5
2018-Jun-17 06:00N 59°39' E 005°20'3 7.0
2018-Jun-17 05:30N 59°37' E 005°17'4 6.9
2018-Jun-17 04:59N 59°33' E 005°13'4 6.8
2018-Jun-17 04:28N 59°30' E 005°13'12 7.0
2018-Jun-17 02:40N 59°18' E 005°20'1 7.4
2018-Jun-17 02:30N 59°17' E 005°20'4 7.3
2018-Jun-17 02:00N 59°13' E 005°21'4 7.4
2018-Jun-17 01:30N 59°09' E 005°21'4 7.3
2018-Jun-17 01:00N 59°06' E 005°21'3 6.8
2018-Jun-17 00:30N 59°02' E 005°20'3 6.7
2018-Jun-17 00:00N 58°59' E 005°21'3 6.6
2018-Jun-16 23:30N 58°56' E 005°22'3 6.6
2018-Jun-16 23:00N 58°53' E 005°23'3 6.5
2018-Jun-16 22:30N 58°49' E 005°24'3 6.5
2018-Jun-16 22:00N 58°46' E 005°25'3 6.8
2018-Jun-16 21:30N 58°43' E 005°28'3 6.7
2018-Jun-16 21:00N 58°40' E 005°31'3 6.9
2018-Jun-16 20:30N 58°37' E 005°34'4 7.3
2018-Jun-16 20:00N 58°34' E 005°37'4 7.4
2018-Jun-16 19:30N 58°31' E 005°41'4 7.6
2018-Jun-16 18:56N 58°27' E 005°47'3 7.5
2018-Jun-16 18:29N 58°25' E 005°51'4 7.4
2018-Jun-16 18:00N 58°23' E 005°56'4 7.4
2018-Jun-16 17:30N 58°20' E 006°01'29 6.9
2018-Jun-16 13:19N 58°02' E 006°44'2 6.9
2018-Jun-16 13:00N 58°01' E 006°48'3 6.8
2018-Jun-16 12:30N 57°60' E 006°54'3 6.8
2018-Jun-16 12:00N 57°59' E 006°60'3 6.8
2018-Jun-16 11:30N 57°58' E 007°06'3 6.7
2018-Jun-16 10:59N 57°57' E 007°12'  
2018-Jun-13 17:06N 58°05' E 008°04'1 7.6
2018-Jun-13 17:00N 58°05' E 008°05'12 7.4
2018-Jun-13 15:21N 58°10' E 008°26'3 8.2
2018-Jun-13 15:00N 58°12' E 008°30'4 8.2
2018-Jun-13 14:30N 58°15' E 008°36'4 8.1
2018-Jun-13 14:00N 58°17' E 008°42'4 8.1
2018-Jun-13 13:29N 58°20' E 008°48'51 8.1
2018-Jun-13 07:11N 58°52' E 010°04'2 7.9
2018-Jun-13 06:58N 58°53' E 010°06'4 7.7
2018-Jun-13 06:30N 58°55' E 010°12'4 7.4
2018-Jun-13 06:00N 58°57' E 010°18'4 7.2
2018-Jun-13 05:30N 58°60' E 010°23'3 6.9
2018-Jun-13 05:00N 59°02' E 010°28'3 6.8
2018-Jun-13 04:30N 59°05' E 010°31'4 7.2
2018-Jun-13 04:00N 59°08' E 010°35'4 7.1
2018-Jun-13 03:30N 59°11' E 010°37'4 7.7
2018-Jun-13 03:00N 59°15' E 010°36'4 7.8
2018-Jun-13 02:30N 59°19' E 010°35'4 7.8
2018-Jun-13 02:00N 59°23' E 010°34'4 7.7
2018-Jun-13 01:30N 59°27' E 010°31'4 7.4
2018-Jun-13 01:00N 59°30' E 010°27'4 7.0
2018-Jun-13 00:30N 59°33' E 010°24'3 7.0
2018-Jun-13 00:00N 59°36' E 010°25'3 6.8
2018-Jun-12 23:30N 59°40' E 010°24'2 0.1
2018-Jun-11 10:11N 59°41' E 010°22'3 7.6
2018-Jun-11 09:45N 59°38' E 010°25'2 7.0
2018-Jun-11 09:30N 59°37' E 010°25'3 5.8
2018-Jun-11 09:00N 59°34' E 010°25'3 6.7
2018-Jun-11 08:30N 59°31' E 010°26'4 7.4
2018-Jun-11 08:00N 59°28' E 010°30'4 7.9
2018-Jun-11 07:30N 59°24' E 010°34'4 8.0
2018-Jun-11 07:00N 59°20' E 010°36'4 8.2
2018-Jun-11 06:30N 59°16' E 010°37'4 7.8
2018-Jun-11 06:00N 59°12' E 010°39'4 7.5
2018-Jun-11 05:30N 59°09' E 010°41'4 7.4
2018-Jun-11 05:00N 59°06' E 010°45'4 7.2
2018-Jun-11 04:30N 59°03' E 010°49'4 7.0
2018-Jun-11 04:00N 59°01' E 010°55'4 7.2
2018-Jun-11 03:30N 58°59' E 011°01'3 5.3
2018-Jun-11 03:00N 59°00' E 011°06'3 6.4
2018-Jun-11 02:30N 59°03' E 011°09'3 6.4
2018-Jun-11 02:00N 59°05' E 011°13'3 5.1
2018-Jun-11 01:30N 59°06' E 011°18'1 1.8
2018-Jun-11 00:44N 59°07' E 011°20'0 0.0
2018-Jun-11 00:29N 59°07' E 011°20'0 0.0
2018-Jun-10 23:50N 59°07' E 011°20'0 0.0
2018-Jun-10 23:29N 59°07' E 011°20'0 0.0
2018-Jun-10 22:59N 59°07' E 011°20'0 0.0
2018-Jun-10 22:29N 59°07' E 011°20'0 0.0
2018-Jun-10 21:59N 59°07' E 011°20'0 0.0
2018-Jun-10 21:29N 59°07' E 011°20'0 0.0
2018-Jun-10 20:59N 59°07' E 011°20'0 0.0
2018-Jun-10 20:29N 59°07' E 011°20'0 0.0
2018-Jun-10 19:59N 59°07' E 011°20'0 0.0
2018-Jun-10 19:29N 59°07' E 011°20'0 0.0
2018-Jun-10 18:56N 59°07' E 011°20'0 0.0
2018-Jun-10 18:23N 59°07' E 011°20'0 0.0
2018-Jun-10 17:59N 59°07' E 011°20'0 0.0
2018-Jun-10 17:23N 59°07' E 011°20'0 0.0
2018-Jun-10 16:59N 59°07' E 011°20'0 0.0
2018-Jun-10 16:29N 59°07' E 011°20'0 0.0
2018-Jun-10 15:59N 59°07' E 011°20'0 0.0
2018-Jun-10 15:26N 59°07' E 011°20'0 0.0
2018-Jun-10 14:56N 59°07' E 011°20'0 0.0
2018-Jun-10 13:59N 59°07' E 011°20'0 0.0
2018-Jun-10 13:29N 59°07' E 011°20'0 0.0
2018-Jun-10 12:59N 59°07' E 011°20'0 0.0
2018-Jun-10 12:20N 59°07' E 011°20'0 0.0
2018-Jun-10 11:59N 59°07' E 011°20'0 0.0
2018-Jun-10 11:23N 59°07' E 011°20'0 0.0
2018-Jun-10 10:50N 59°07' E 011°20'0 0.0
2018-Jun-10 10:26N 59°07' E 011°20'0 0.0
2018-Jun-10 09:59N 59°07' E 011°20'0 0.0
2018-Jun-10 09:26N 59°07' E 011°20'0 0.0
2018-Jun-10 08:59N 59°07' E 011°20'0 0.0
2018-Jun-10 08:14N 59°07' E 011°20'0 0.0
2018-Jun-10 07:56N 59°07' E 011°20'0 0.0
2018-Jun-10 07:23N 59°07' E 011°20'0 0.0
2018-Jun-10 06:59N 59°07' E 011°20'0 0.0
2018-Jun-10 06:26N 59°07' E 011°20'0 0.0
2018-Jun-10 05:59N 59°07' E 011°20'0 0.0
2018-Jun-10 05:26N 59°07' E 011°20'0 0.0
2018-Jun-10 04:53N 59°07' E 011°20'0 0.0
2018-Jun-10 04:29N 59°07' E 011°20'0 0.0
2018-Jun-10 03:59N 59°07' E 011°20'0 0.0
2018-Jun-10 03:26N 59°07' E 011°20'0 0.0
2018-Jun-10 02:59N 59°07' E 011°20'0 0.0
2018-Jun-10 02:29N 59°07' E 011°20'0 0.0
2018-Jun-10 01:59N 59°07' E 011°20'0 0.0
2018-Jun-10 01:23N 59°07' E 011°20'0 0.0
2018-Jun-10 00:53N 59°07' E 011°20'0 0.0
2018-Jun-10 00:26N 59°07' E 011°20'0 0.0
2018-Jun-09 23:59N 59°07' E 011°20'0 0.0
2018-Jun-09 23:26N 59°07' E 011°20'0 0.0
2018-Jun-09 22:59N 59°07' E 011°20'0 0.0
2018-Jun-09 22:29N 59°07' E 011°20'0 0.0
2018-Jun-09 21:59N 59°07' E 011°20'0 0.0
2018-Jun-09 21:29N 59°07' E 011°20'0 0.0
2018-Jun-09 20:59N 59°07' E 011°20'0 0.0
2018-Jun-09 20:29N 59°07' E 011°20'0 0.0
2018-Jun-09 19:53N 59°07' E 011°20'0 0.0
2018-Jun-09 19:29N 59°07' E 011°20'0 0.0
2018-Jun-09 18:56N 59°07' E 011°20'0 0.0
2018-Jun-09 18:20N 59°07' E 011°20'0 0.0
2018-Jun-09 17:56N 59°07' E 011°20'0 0.0
2018-Jun-09 17:26N 59°07' E 011°20'0 0.0
2018-Jun-09 16:50N 59°07' E 011°20'0 0.0
2018-Jun-09 16:28N 59°07' E 011°20'0 0.0
2018-Jun-09 15:43N 59°07' E 011°20'0 0.0
2018-Jun-09 15:22N 59°07' E 011°20'0 0.0
2018-Jun-09 14:28N 59°07' E 011°20'0 0.0
2018-Jun-09 13:55N 59°07' E 011°20'0 0.0
2018-Jun-09 13:19N 59°07' E 011°20'0 0.0
2018-Jun-09 12:58N 59°07' E 011°20'0 0.0
2018-Jun-09 12:25N 59°07' E 011°20'0 0.0
2018-Jun-09 11:58N 59°07' E 011°20'0 0.0
2018-Jun-09 11:10N 59°07' E 011°20'0 0.0
2018-Jun-09 10:49N 59°07' E 011°20'0 0.0
2018-Jun-09 10:25N 59°07' E 011°20'0 0.0
2018-Jun-09 09:58N 59°07' E 011°20'0 0.0
2018-Jun-09 09:28N 59°07' E 011°20'0 0.0
2018-Jun-09 08:58N 59°07' E 011°20'0 0.0
2018-Jun-09 08:28N 59°07' E 011°20'0 0.0
2018-Jun-09 07:58N 59°07' E 011°20'0 0.2
2018-Jun-09 07:04N 59°07' E 011°20'1 0.5
2018-Jun-09 04:19N 59°07' E 011°23'0 0.0
2018-Jun-09 03:28N 59°07' E 011°23'0 0.0
2018-Jun-09 02:58N 59°07' E 011°23'0 0.0
2018-Jun-09 02:04N 59°07' E 011°23'0 0.0
2018-Jun-09 01:52N 59°07' E 011°23'0 0.0
2018-Jun-09 01:13N 59°07' E 011°23'0 0.0
2018-Jun-08 22:31N 59°07' E 011°23'0 0.1
2018-Jun-08 22:28N 59°07' E 011°23'0 0.0
2018-Jun-08 21:58N 59°07' E 011°23'1 0.2
2018-Jun-08 17:10N 59°07' E 011°21'2 6.5
2018-Jun-08 16:54N 59°06' E 011°18'3 6.3
2018-Jun-08 16:30N 59°05' E 011°13'4 7.4
2018-Jun-08 16:00N 59°03' E 011°08'4 7.9
2018-Jun-08 15:30N 58°59' E 011°05'4 8.0
2018-Jun-08 15:00N 58°56' E 010°60'4 8.1
2018-Jun-08 14:30N 58°54' E 010°53'4 8.0
2018-Jun-08 14:00N 58°51' E 010°47'4 8.0
2018-Jun-08 13:30N 58°48' E 010°42'4 8.0
2018-Jun-08 13:00N 58°46' E 010°36'4 8.0
2018-Jun-08 12:30N 58°43' E 010°30'4 7.8
2018-Jun-08 12:00N 58°41' E 010°24'4 7.7
2018-Jun-08 11:30N 58°38' E 010°18'4 7.7
2018-Jun-08 11:00N 58°36' E 010°13'4 7.7
2018-Jun-08 10:30N 58°33' E 010°07'4 7.7
2018-Jun-08 10:00N 58°31' E 010°02'5 7.5
2018-Jun-08 09:24N 58°28' E 009°55'3 7.7
2018-Jun-08 09:00N 58°26' E 009°51'4 7.7
2018-Jun-08 08:30N 58°23' E 009°45'12 7.6
2018-Jun-08 06:56N 58°15' E 009°28'11 6.7
2018-Jun-08 05:22N 58°09' E 009°13'3 6.7
2018-Jun-08 04:55N 58°07' E 009°09'3 6.8
2018-Jun-08 04:30N 58°05' E 009°05'4 7.2
2018-Jun-08 04:00N 58°02' E 008°60'4 7.2
2018-Jun-08 03:30N 58°00' E 008°54'4 7.0
2018-Jun-08 03:00N 57°58' E 008°49'3 6.8
2018-Jun-08 02:30N 57°56' E 008°43'4 7.0
2018-Jun-08 01:58N 57°56' E 008°36'3 7.5
2018-Jun-08 01:30N 57°55' E 008°30'4 7.7
2018-Jun-08 01:00N 57°55' E 008°23'4 7.8
2018-Jun-08 00:30N 57°54' E 008°15'16 7.8
2018-Jun-07 22:25N 57°52' E 007°45'16 7.2
2018-Jun-07 20:09N 57°52' E 007°14'3 7.1
2018-Jun-07 19:45N 57°52' E 007°09'2 7.4
2018-Jun-07 19:28N 57°52' E 007°05'3 7.3
2018-Jun-07 19:00N 57°53' E 006°59'4 7.4
2018-Jun-07 18:30N 57°55' E 006°53'4 7.3
2018-Jun-07 18:00N 57°57' E 006°47'4 7.2
2018-Jun-07 17:30N 57°58' E 006°40'5 7.0
2018-Jun-07 16:49N 58°00' E 006°32'2 6.6
2018-Jun-07 16:30N 58°01' E 006°29'3 6.4
2018-Jun-07 15:59N 58°04' E 006°24'3 6.5
2018-Jun-07 15:29N 58°06' E 006°20'3 6.6
2018-Jun-07 15:00N 58°08' E 006°15'4 6.9
2018-Jun-07 14:29N 58°10' E 006°10'5 7.2
2018-Jun-07 13:46N 58°14' E 006°03'2 7.8
2018-Jun-07 13:27N 58°15' E 005°59'4 7.5
2018-Jun-07 12:59N 58°18' E 005°55'3 7.4
2018-Jun-07 12:31N 58°21' E 005°51'4 7.4
2018-Jun-07 12:00N 58°23' E 005°46'3 6.2
2018-Jun-07 11:30N 58°26' E 005°42'3 6.4
2018-Jun-07 11:01N 58°28' E 005°38'3 6.3
2018-Jun-07 10:30N 58°30' E 005°34'3 6.1
2018-Jun-07 10:00N 58°33' E 005°31'4 7.4
2018-Jun-07 09:30N 58°37' E 005°28'4 7.6
2018-Jun-07 09:00N 58°40' E 005°26'4 7.5
2018-Jun-07 08:30N 58°44' E 005°23'  

Dump ship's entire track history